Terminal Aerodrome Forecast
Issued by NWS Charleston, WV

Current Version | Previous Version | Graphics & Text | Print | Product List | Glossary On
Versions: 1 2 3 4 5 6 7 8 9 10 11 12 13 14 15 16 17 18 19 20 21 22 23 24 25 26
983
FTUS41 KRLX 280248 AAA
TAFPKB
TAF AMD
KPKB 280248Z 2803/2824 00000KT 4SM HZ SKC
     FM281400 VRB03KT P6SM SCT060
     FM281800 21004KT P6SM SCT040=

USA.gov is the U.S. government's official web portal to all federal, state and local government web resources and services.